CheckWX is a tool to help pilots better visualize weather data.  It is not intended as a substitute for an official pre-flight weather briefing.

21:04:33 UTC

CYPH METAR
Inukjuak Airport
Inukjuak, Canada
Current

1 hour ago

CYPH 232000Z AUTO 27012G17KT 9SM OVC013 M02/M05 A3004 RMK SLP176
Observed
May-23 @ 20:00 UTC
Wind
  • 270° at 12 KTS
  • Gusting to 17 KTS
Visibility
9 SM
Flight Rules
MVFR
Cloud Levels
  • Overcast at 1,300' AGL
Temperature
-2°C / 28°F
Dewpoint
-5°C / 23°F
Humidity
80%
Altimeter
30.04" Hg
Pressure
1017.32 hPa
Previous

2 hours ago

CYPH 231900Z AUTO 26012G17KT 9SM OVC013 M02/M05 A3005 RMK SLP178
Observed
May-23 @ 19:00 UTC
Wind
  • 260° at 12 KTS
  • Gusting to 17 KTS
Visibility
9 SM
Flight Rules
MVFR
Cloud Levels
  • Overcast at 1,300' AGL
Temperature
-2°C / 28°F
Dewpoint
-5°C / 23°F
Humidity
80%
Altimeter
30.05" Hg
Pressure
1017.62 hPa
Previous

3 hours ago

CYPH 231800Z AUTO 27012G17KT 9SM OVC015 M02/M05 A3004 RMK SLP177
Observed
May-23 @ 18:00 UTC
Wind
  • 270° at 12 KTS
  • Gusting to 17 KTS
Visibility
9 SM
Flight Rules
MVFR
Cloud Levels
  • Overcast at 1,500' AGL
Temperature
-2°C / 28°F
Dewpoint
-5°C / 23°F
Humidity
80%
Altimeter
30.04" Hg
Pressure
1017.32 hPa